sensor_id;sensor_type;location;lat;lon;timestamp;temperature;humidity
19809;DHT22;48538;32.784;-96.802;2023-04-24T00:00:59;15.40;99.90
19809;DHT22;48538;32.784;-96.802;2023-04-24T00:03:27;15.40;99.90
19809;DHT22;48538;32.784;-96.802;2023-04-24T00:05:56;15.50;99.90
19809;DHT22;48538;32.784;-96.802;2023-04-24T00:08:22;15.50;99.90
19809;DHT22;48538;32.784;-96.802;2023-04-24T00:10:49;15.40;99.90
19809;DHT22;48538;32.784;-96.802;2023-04-24T00:13:16;15.40;99.90
19809;DHT22;48538;32.784;-96.802;2023-04-24T00:15:42;15.40;99.90
19809;DHT22;48538;32.784;-96.802;2023-04-24T00:18:08;15.30;99.90
19809;DHT22;48538;32.784;-96.802;2023-04-24T00:20:34;15.20;99.90
19809;DHT22;48538;32.784;-96.802;2023-04-24T00:23:03;15.20;99.90
19809;DHT22;48538;32.784;-96.802;2023-04-24T00:25:30;15.10;99.90
19809;DHT22;48538;32.784;-96.802;2023-04-24T00:27:56;15.20;99.90
19809;DHT22;48538;32.784;-96.802;2023-04-24T00:30:22;15.20;99.90
19809;DHT22;48538;32.784;-96.802;2023-04-24T00:32:49;15.20;99.90
19809;DHT22;48538;32.784;-96.802;2023-04-24T00:35:15;15.20;99.90
19809;DHT22;48538;32.784;-96.802;2023-04-24T00:37:41;15.30;99.90
19809;DHT22;48538;32.784;-96.802;2023-04-24T00:40:08;15.20;99.90
19809;DHT22;48538;32.784;-96.802;2023-04-24T00:42:34;15.20;99.90
19809;DHT22;48538;32.784;-96.802;2023-04-24T00:45:01;15.20;99.90
19809;DHT22;48538;32.784;-96.802;2023-04-24T00:47:29;15.10;99.90
19809;DHT22;48538;32.784;-96.802;2023-04-24T00:49:55;15.20;99.90
19809;DHT22;48538;32.784;-96.802;2023-04-24T00:52:22;15.20;99.90
19809;DHT22;48538;32.784;-96.802;2023-04-24T00:54:50;15.10;99.90
19809;DHT22;48538;32.784;-96.802;2023-04-24T00:57:16;15.00;99.90
19809;DHT22;48538;32.784;-96.802;2023-04-24T00:59:43;15.00;99.90
19809;DHT22;48538;32.784;-96.802;2023-04-24T01:02:11;15.00;99.90
19809;DHT22;48538;32.784;-96.802;2023-04-24T01:04:38;14.90;99.90
19809;DHT22;48538;32.784;-96.802;2023-04-24T01:07:04;14.80;99.90
19809;DHT22;48538;32.784;-96.802;2023-04-24T01:09:40;14.80;99.90
19809;DHT22;48538;32.784;-96.802;2023-04-24T01:12:09;14.70;99.90
19809;DHT22;48538;32.784;-96.802;2023-04-24T01:14:36;14.70;99.90
19809;DHT22;48538;32.784;-96.802;2023-04-24T01:17:03;14.60;99.90
19809;DHT22;48538;32.784;-96.802;2023-04-24T01:19:29;14.60;99.90
19809;DHT22;48538;32.784;-96.802;2023-04-24T01:21:58;14.60;99.90
19809;DHT22;48538;32.784;-96.802;2023-04-24T01:24:25;14.60;99.90
19809;DHT22;48538;32.784;-96.802;2023-04-24T01:26:51;14.40;99.90
19809;DHT22;48538;32.784;-96.802;2023-04-24T01:29:18;14.50;99.90
19809;DHT22;48538;32.784;-96.802;2023-04-24T01:31:44;14.50;99.90
19809;DHT22;48538;32.784;-96.802;2023-04-24T01:34:11;14.40;99.90
19809;DHT22;48538;32.784;-96.802;2023-04-24T01:36:38;14.30;99.90
19809;DHT22;48538;32.784;-96.802;2023-04-24T01:39:05;14.30;99.90
19809;DHT22;48538;32.784;-96.802;2023-04-24T01:41:32;14.30;99.90
19809;DHT22;48538;32.784;-96.802;2023-04-24T01:43:58;14.30;99.90
19809;DHT22;48538;32.784;-96.802;2023-04-24T01:46:25;14.30;99.90
19809;DHT22;48538;32.784;-96.802;2023-04-24T01:48:52;14.40;99.90
19809;DHT22;48538;32.784;-96.802;2023-04-24T01:51:18;14.40;99.90
19809;DHT22;48538;32.784;-96.802;2023-04-24T01:53:45;14.30;99.90
19809;DHT22;48538;32.784;-96.802;2023-04-24T01:56:11;14.20;99.90
19809;DHT22;48538;32.784;-96.802;2023-04-24T01:58:38;14.30;99.90
19809;DHT22;48538;32.784;-96.802;2023-04-24T02:01:05;14.20;99.90
19809;DHT22;48538;32.784;-96.802;2023-04-24T02:03:32;14.20;99.90
19809;DHT22;48538;32.784;-96.802;2023-04-24T02:05:58;14.10;99.90
19809;DHT22;48538;32.784;-96.802;2023-04-24T02:08:24;14.00;99.90
19809;DHT22;48538;32.784;-96.802;2023-04-24T02:10:51;14.00;99.90
19809;DHT22;48538;32.784;-96.802;2023-04-24T02:13:17;14.00;99.90
19809;DHT22;48538;32.784;-96.802;2023-04-24T02:15:43;14.00;99.90
19809;DHT22;48538;32.784;-96.802;2023-04-24T02:18:10;14.00;99.90
19809;DHT22;48538;32.784;-96.802;2023-04-24T02:20:37;13.90;99.90
19809;DHT22;48538;32.784;-96.802;2023-04-24T02:23:03;13.90;99.90
19809;DHT22;48538;32.784;-96.802;2023-04-24T02:25:29;13.90;99.90
19809;DHT22;48538;32.784;-96.802;2023-04-24T02:27:56;13.80;99.90
19809;DHT22;48538;32.784;-96.802;2023-04-24T02:30:22;13.80;99.90
19809;DHT22;48538;32.784;-96.802;2023-04-24T02:32:48;13.70;99.90
19809;DHT22;48538;32.784;-96.802;2023-04-24T02:35:15;13.70;99.90
19809;DHT22;48538;32.784;-96.802;2023-04-24T02:37:41;13.70;99.90
19809;DHT22;48538;32.784;-96.802;2023-04-24T02:40:08;13.60;99.90
19809;DHT22;48538;32.784;-96.802;2023-04-24T02:42:34;13.60;99.90
19809;DHT22;48538;32.784;-96.802;2023-04-24T02:45:01;13.60;99.90
19809;DHT22;48538;32.784;-96.802;2023-04-24T02:47:27;13.50;99.90
19809;DHT22;48538;32.784;-96.802;2023-04-24T02:49:53;13.50;99.90
19809;DHT22;48538;32.784;-96.802;2023-04-24T02:52:20;13.50;99.90
19809;DHT22;48538;32.784;-96.802;2023-04-24T02:54:46;13.60;99.90
19809;DHT22;48538;32.784;-96.802;2023-04-24T02:57:12;13.60;99.90
19809;DHT22;48538;32.784;-96.802;2023-04-24T02:59:39;13.70;99.90
19809;DHT22;48538;32.784;-96.802;2023-04-24T03:02:05;13.70;99.90
19809;DHT22;48538;32.784;-96.802;2023-04-24T03:04:31;13.70;99.90
19809;DHT22;48538;32.784;-96.802;2023-04-24T03:06:58;13.60;99.90
19809;DHT22;48538;32.784;-96.802;2023-04-24T03:09:24;13.70;99.90
19809;DHT22;48538;32.784;-96.802;2023-04-24T03:11:50;13.70;99.90
19809;DHT22;48538;32.784;-96.802;2023-04-24T03:14:17;13.70;99.90
19809;DHT22;48538;32.784;-96.802;2023-04-24T03:16:43;13.70;99.90
19809;DHT22;48538;32.784;-96.802;2023-04-24T03:19:09;13.70;99.90
19809;DHT22;48538;32.784;-96.802;2023-04-24T03:21:38;13.60;99.90
19809;DHT22;48538;32.784;-96.802;2023-04-24T03:24:07;13.70;99.90
19809;DHT22;48538;32.784;-96.802;2023-04-24T03:26:34;13.60;99.90
19809;DHT22;48538;32.784;-96.802;2023-04-24T03:29:01;13.70;99.90
19809;DHT22;48538;32.784;-96.802;2023-04-24T03:31:27;13.70;99.90
19809;DHT22;48538;32.784;-96.802;2023-04-24T03:33:54;13.60;99.90
19809;DHT22;48538;32.784;-96.802;2023-04-24T03:36:20;13.60;99.90
19809;DHT22;48538;32.784;-96.802;2023-04-24T03:38:46;13.60;99.90
19809;DHT22;48538;32.784;-96.802;2023-04-24T03:41:12;13.50;99.90
19809;DHT22;48538;32.784;-96.802;2023-04-24T03:43:39;13.60;99.90
19809;DHT22;48538;32.784;-96.802;2023-04-24T03:46:05;13.60;99.90
19809;DHT22;48538;32.784;-96.802;2023-04-24T03:48:32;13.60;99.90
19809;DHT22;48538;32.784;-96.802;2023-04-24T03:50:59;13.60;99.90
19809;DHT22;48538;32.784;-96.802;2023-04-24T03:53:25;13.60;99.90
19809;DHT22;48538;32.784;-96.802;2023-04-24T03:55:53;13.50;99.90
19809;DHT22;48538;32.784;-96.802;2023-04-24T03:58:19;13.50;99.90
19809;DHT22;48538;32.784;-96.802;2023-04-24T04:00:45;13.50;99.90
19809;DHT22;48538;32.784;-96.802;2023-04-24T04:03:13;13.50;99.90
19809;DHT22;48538;32.784;-96.802;2023-04-24T04:05:40;13.50;99.90
19809;DHT22;48538;32.784;-96.802;2023-04-24T04:08:06;13.50;99.90
19809;DHT22;48538;32.784;-96.802;2023-04-24T04:10:33;13.50;99.90
19809;DHT22;48538;32.784;-96.802;2023-04-24T04:12:59;13.40;99.90
19809;DHT22;48538;32.784;-96.802;2023-04-24T04:15:26;13.30;99.90
19809;DHT22;48538;32.784;-96.802;2023-04-24T04:17:52;13.40;99.90
19809;DHT22;48538;32.784;-96.802;2023-04-24T04:20:18;13.30;99.90
19809;DHT22;48538;32.784;-96.802;2023-04-24T04:22:45;13.30;99.90
19809;DHT22;48538;32.784;-96.802;2023-04-24T04:25:11;13.40;99.90
19809;DHT22;48538;32.784;-96.802;2023-04-24T04:27:39;13.30;99.90
19809;DHT22;48538;32.784;-96.802;2023-04-24T04:30:08;13.30;99.90
19809;DHT22;48538;32.784;-96.802;2023-04-24T04:32:35;13.30;99.90
19809;DHT22;48538;32.784;-96.802;2023-04-24T04:35:02;13.30;99.90
19809;DHT22;48538;32.784;-96.802;2023-04-24T04:37:32;13.30;99.90
19809;DHT22;48538;32.784;-96.802;2023-04-24T04:40:02;13.30;99.90
19809;DHT22;48538;32.784;-96.802;2023-04-24T04:42:33;13.20;99.90
19809;DHT22;48538;32.784;-96.802;2023-04-24T04:45:07;13.20;99.90
19809;DHT22;48538;32.784;-96.802;2023-04-24T04:47:38;13.20;99.90
19809;DHT22;48538;32.784;-96.802;2023-04-24T04:50:05;13.30;99.90
19809;DHT22;48538;32.784;-96.802;2023-04-24T04:52:32;13.20;99.90
19809;DHT22;48538;32.784;-96.802;2023-04-24T04:54:58;13.20;99.90
19809;DHT22;48538;32.784;-96.802;2023-04-24T04:57:25;13.10;99.90
19809;DHT22;48538;32.784;-96.802;2023-04-24T04:59:51;13.00;99.90
19809;DHT22;48538;32.784;-96.802;2023-04-24T05:02:17;13.00;99.90
19809;DHT22;48538;32.784;-96.802;2023-04-24T05:04:43;13.00;99.90
19809;DHT22;48538;32.784;-96.802;2023-04-24T05:07:11;13.00;99.90
19809;DHT22;48538;32.784;-96.802;2023-04-24T05:09:37;13.10;99.90
19809;DHT22;48538;32.784;-96.802;2023-04-24T05:12:03;13.10;99.90
19809;DHT22;48538;32.784;-96.802;2023-04-24T05:14:30;13.10;99.90
19809;DHT22;48538;32.784;-96.802;2023-04-24T05:16:56;13.10;99.90
19809;DHT22;48538;32.784;-96.802;2023-04-24T05:19:22;13.10;99.90
19809;DHT22;48538;32.784;-96.802;2023-04-24T05:21:49;13.10;99.90
19809;DHT22;48538;32.784;-96.802;2023-04-24T05:24:15;13.10;99.90
19809;DHT22;48538;32.784;-96.802;2023-04-24T05:26:41;13.10;99.90
19809;DHT22;48538;32.784;-96.802;2023-04-24T05:29:07;13.10;99.90
19809;DHT22;48538;32.784;-96.802;2023-04-24T05:31:34;13.00;99.90
19809;DHT22;48538;32.784;-96.802;2023-04-24T05:34:00;13.00;99.90
19809;DHT22;48538;32.784;-96.802;2023-04-24T05:36:26;13.00;99.90
19809;DHT22;48538;32.784;-96.802;2023-04-24T05:38:53;12.90;99.90
19809;DHT22;48538;32.784;-96.802;2023-04-24T05:41:19;12.90;99.90
19809;DHT22;48538;32.784;-96.802;2023-04-24T05:43:46;12.90;99.90
19809;DHT22;48538;32.784;-96.802;2023-04-24T05:46:12;13.00;99.90
19809;DHT22;48538;32.784;-96.802;2023-04-24T05:48:38;12.90;99.90
19809;DHT22;48538;32.784;-96.802;2023-04-24T05:51:04;12.90;99.90
19809;DHT22;48538;32.784;-96.802;2023-04-24T05:53:31;13.00;99.90
19809;DHT22;48538;32.784;-96.802;2023-04-24T05:55:57;13.00;99.90
19809;DHT22;48538;32.784;-96.802;2023-04-24T05:58:23;12.90;99.90
19809;DHT22;48538;32.784;-96.802;2023-04-24T06:00:50;12.90;99.90
19809;DHT22;48538;32.784;-96.802;2023-04-24T06:03:16;12.90;99.90
19809;DHT22;48538;32.784;-96.802;2023-04-24T06:05:42;13.00;99.90
19809;DHT22;48538;32.784;-96.802;2023-04-24T06:08:09;12.90;99.90
19809;DHT22;48538;32.784;-96.802;2023-04-24T06:10:35;12.90;99.90
19809;DHT22;48538;32.784;-96.802;2023-04-24T06:13:02;12.90;99.90
19809;DHT22;48538;32.784;-96.802;2023-04-24T06:15:29;12.80;99.90
19809;DHT22;48538;32.784;-96.802;2023-04-24T06:17:58;12.80;99.90
19809;DHT22;48538;32.784;-96.802;2023-04-24T06:20:25;12.80;99.90
19809;DHT22;48538;32.784;-96.802;2023-04-24T06:22:51;12.80;99.90
19809;DHT22;48538;32.784;-96.802;2023-04-24T06:25:18;12.80;99.90
19809;DHT22;48538;32.784;-96.802;2023-04-24T06:27:45;12.60;99.90
19809;DHT22;48538;32.784;-96.802;2023-04-24T06:30:11;12.60;99.90
19809;DHT22;48538;32.784;-96.802;2023-04-24T06:32:38;12.60;99.90
19809;DHT22;48538;32.784;-96.802;2023-04-24T06:35:04;12.50;99.90
19809;DHT22;48538;32.784;-96.802;2023-04-24T06:37:33;12.50;99.90
19809;DHT22;48538;32.784;-96.802;2023-04-24T06:39:59;12.50;99.90
19809;DHT22;48538;32.784;-96.802;2023-04-24T06:42:25;12.50;99.90
19809;DHT22;48538;32.784;-96.802;2023-04-24T06:44:52;12.50;99.90
19809;DHT22;48538;32.784;-96.802;2023-04-24T06:47:19;12.50;99.90
19809;DHT22;48538;32.784;-96.802;2023-04-24T06:49:45;12.50;99.90
19809;DHT22;48538;32.784;-96.802;2023-04-24T06:52:11;12.50;99.90
19809;DHT22;48538;32.784;-96.802;2023-04-24T06:54:38;12.50;99.90
19809;DHT22;48538;32.784;-96.802;2023-04-24T06:57:04;12.50;99.90
19809;DHT22;48538;32.784;-96.802;2023-04-24T06:59:30;12.40;99.90
19809;DHT22;48538;32.784;-96.802;2023-04-24T07:01:56;12.40;99.90
19809;DHT22;48538;32.784;-96.802;2023-04-24T07:04:23;12.40;99.90
19809;DHT22;48538;32.784;-96.802;2023-04-24T07:06:50;12.40;99.90
19809;DHT22;48538;32.784;-96.802;2023-04-24T07:09:17;12.40;99.90
19809;DHT22;48538;32.784;-96.802;2023-04-24T07:11:45;12.40;99.90
19809;DHT22;48538;32.784;-96.802;2023-04-24T07:14:11;12.30;99.90
19809;DHT22;48538;32.784;-96.802;2023-04-24T07:16:38;12.40;99.90
19809;DHT22;48538;32.784;-96.802;2023-04-24T07:19:04;12.30;99.90
19809;DHT22;48538;32.784;-96.802;2023-04-24T07:21:31;12.30;99.90
19809;DHT22;48538;32.784;-96.802;2023-04-24T07:23:58;12.30;99.90
19809;DHT22;48538;32.784;-96.802;2023-04-24T07:26:26;12.30;99.90
19809;DHT22;48538;32.784;-96.802;2023-04-24T07:28:52;12.20;99.90
19809;DHT22;48538;32.784;-96.802;2023-04-24T07:31:19;12.20;99.90
19809;DHT22;48538;32.784;-96.802;2023-04-24T07:33:45;12.10;99.90
19809;DHT22;48538;32.784;-96.802;2023-04-24T07:36:11;12.10;99.90
19809;DHT22;48538;32.784;-96.802;2023-04-24T07:38:45;12.10;99.90
19809;DHT22;48538;32.784;-96.802;2023-04-24T07:41:13;12.10;99.90
19809;DHT22;48538;32.784;-96.802;2023-04-24T07:43:40;12.10;99.90
19809;DHT22;48538;32.784;-96.802;2023-04-24T07:46:09;12.10;99.90
19809;DHT22;48538;32.784;-96.802;2023-04-24T07:48:36;12.10;99.90
19809;DHT22;48538;32.784;-96.802;2023-04-24T07:51:02;12.10;99.90
19809;DHT22;48538;32.784;-96.802;2023-04-24T07:53:29;12.10;99.90
19809;DHT22;48538;32.784;-96.802;2023-04-24T07:55:56;12.10;99.90
19809;DHT22;48538;32.784;-96.802;2023-04-24T07:58:23;12.10;99.90
19809;DHT22;48538;32.784;-96.802;2023-04-24T08:00:49;12.10;99.90
19809;DHT22;48538;32.784;-96.802;2023-04-24T08:03:16;12.10;99.90
19809;DHT22;48538;32.784;-96.802;2023-04-24T08:05:45;12.10;99.90
19809;DHT22;48538;32.784;-96.802;2023-04-24T08:08:11;12.10;99.90
19809;DHT22;48538;32.784;-96.802;2023-04-24T08:10:38;12.10;99.90
19809;DHT22;48538;32.784;-96.802;2023-04-24T08:13:04;12.00;99.90
19809;DHT22;48538;32.784;-96.802;2023-04-24T08:15:30;12.00;99.90
19809;DHT22;48538;32.784;-96.802;2023-04-24T08:17:57;11.90;99.90
19809;DHT22;48538;32.784;-96.802;2023-04-24T08:20:24;11.90;99.90
19809;DHT22;48538;32.784;-96.802;2023-04-24T08:22:50;11.90;99.90
19809;DHT22;48538;32.784;-96.802;2023-04-24T08:25:16;11.80;99.90
19809;DHT22;48538;32.784;-96.802;2023-04-24T08:27:44;11.80;99.90
19809;DHT22;48538;32.784;-96.802;2023-04-24T08:30:10;11.80;99.90
19809;DHT22;48538;32.784;-96.802;2023-04-24T08:32:37;11.80;99.90
19809;DHT22;48538;32.784;-96.802;2023-04-24T08:35:04;11.80;99.90
19809;DHT22;48538;32.784;-96.802;2023-04-24T08:37:30;11.80;99.90
19809;DHT22;48538;32.784;-96.802;2023-04-24T08:39:57;11.70;99.90
19809;DHT22;48538;32.784;-96.802;2023-04-24T08:42:23;11.70;99.90
19809;DHT22;48538;32.784;-96.802;2023-04-24T08:44:50;11.60;99.90
19809;DHT22;48538;32.784;-96.802;2023-04-24T08:47:16;11.60;99.90
19809;DHT22;48538;32.784;-96.802;2023-04-24T08:49:43;11.70;99.90
19809;DHT22;48538;32.784;-96.802;2023-04-24T08:52:12;11.70;99.90
19809;DHT22;48538;32.784;-96.802;2023-04-24T08:54:39;11.70;99.90
19809;DHT22;48538;32.784;-96.802;2023-04-24T08:57:07;11.70;99.90
19809;DHT22;48538;32.784;-96.802;2023-04-24T08:59:38;11.80;99.90
19809;DHT22;48538;32.784;-96.802;2023-04-24T09:02:05;11.80;99.90
19809;DHT22;48538;32.784;-96.802;2023-04-24T09:04:33;11.80;99.90
19809;DHT22;48538;32.784;-96.802;2023-04-24T09:07:01;11.80;99.90
19809;DHT22;48538;32.784;-96.802;2023-04-24T09:09:30;11.80;99.90
19809;DHT22;48538;32.784;-96.802;2023-04-24T09:11:58;11.70;99.90
19809;DHT22;48538;32.784;-96.802;2023-04-24T09:14:25;11.80;99.90
19809;DHT22;48538;32.784;-96.802;2023-04-24T09:16:52;11.80;99.90
19809;DHT22;48538;32.784;-96.802;2023-04-24T09:19:18;11.80;99.90
19809;DHT22;48538;32.784;-96.802;2023-04-24T09:21:46;11.80;99.90
19809;DHT22;48538;32.784;-96.802;2023-04-24T09:24:21;11.90;99.90
19809;DHT22;48538;32.784;-96.802;2023-04-24T09:26:57;11.90;99.90
19809;DHT22;48538;32.784;-96.802;2023-04-24T09:29:32;11.90;99.90
19809;DHT22;48538;32.784;-96.802;2023-04-24T09:31:59;11.90;99.90
19809;DHT22;48538;32.784;-96.802;2023-04-24T09:34:43;11.90;99.90
19809;DHT22;48538;32.784;-96.802;2023-04-24T09:37:58;11.90;99.90
19809;DHT22;48538;32.784;-96.802;2023-04-24T09:40:09;11.80;99.90
19809;DHT22;48538;32.784;-96.802;2023-04-24T09:42:38;11.80;99.90
19809;DHT22;48538;32.784;-96.802;2023-04-24T09:45:11;11.80;99.90
19809;DHT22;48538;32.784;-96.802;2023-04-24T09:47:39;11.80;99.90
19809;DHT22;48538;32.784;-96.802;2023-04-24T09:50:16;11.80;99.90
19809;DHT22;48538;32.784;-96.802;2023-04-24T09:52:44;11.80;99.90
19809;DHT22;48538;32.784;-96.802;2023-04-24T09:55:15;11.80;99.90
19809;DHT22;48538;32.784;-96.802;2023-04-24T09:57:54;11.80;99.90
19809;DHT22;48538;32.784;-96.802;2023-04-24T10:00:26;11.80;99.90
19809;DHT22;48538;32.784;-96.802;2023-04-24T10:03:04;11.80;99.90
19809;DHT22;48538;32.784;-96.802;2023-04-24T10:05:33;11.70;99.90
19809;DHT22;48538;32.784;-96.802;2023-04-24T10:08:05;11.80;99.90
19809;DHT22;48538;32.784;-96.802;2023-04-24T10:10:33;11.70;99.90
19809;DHT22;48538;32.784;-96.802;2023-04-24T10:13:00;11.70;99.90
19809;DHT22;48538;32.784;-96.802;2023-04-24T10:15:27;11.70;99.90
19809;DHT22;48538;32.784;-96.802;2023-04-24T10:17:54;11.70;99.90
19809;DHT22;48538;32.784;-96.802;2023-04-24T10:20:27;11.70;99.90
19809;DHT22;48538;32.784;-96.802;2023-04-24T10:22:57;11.70;99.90
19809;DHT22;48538;32.784;-96.802;2023-04-24T10:25:29;11.70;99.90
19809;DHT22;48538;32.784;-96.802;2023-04-24T10:27:57;11.60;99.90
19809;DHT22;48538;32.784;-96.802;2023-04-24T10:30:32;11.60;99.90
19809;DHT22;48538;32.784;-96.802;2023-04-24T10:33:03;11.60;99.90
19809;DHT22;48538;32.784;-96.802;2023-04-24T10:35:36;11.60;99.90
19809;DHT22;48538;32.784;-96.802;2023-04-24T10:38:14;11.70;99.90
19809;DHT22;48538;32.784;-96.802;2023-04-24T10:40:41;11.70;99.90
19809;DHT22;48538;32.784;-96.802;2023-04-24T10:43:08;11.60;99.90
19809;DHT22;48538;32.784;-96.802;2023-04-24T10:45:38;11.60;99.90
19809;DHT22;48538;32.784;-96.802;2023-04-24T10:48:06;11.60;99.90
19809;DHT22;48538;32.784;-96.802;2023-04-24T10:50:46;11.60;99.90
19809;DHT22;48538;32.784;-96.802;2023-04-24T10:53:18;11.60;99.90
19809;DHT22;48538;32.784;-96.802;2023-04-24T10:55:49;11.50;99.90
19809;DHT22;48538;32.784;-96.802;2023-04-24T10:58:18;11.60;99.90
19809;DHT22;48538;32.784;-96.802;2023-04-24T11:00:56;11.60;99.90
19809;DHT22;48538;32.784;-96.802;2023-04-24T11:03:31;11.60;99.90
19809;DHT22;48538;32.784;-96.802;2023-04-24T11:06:03;11.60;99.90
19809;DHT22;48538;32.784;-96.802;2023-04-24T11:08:46;11.70;99.90
19809;DHT22;48538;32.784;-96.802;2023-04-24T11:11:18;11.70;99.90
19809;DHT22;48538;32.784;-96.802;2023-04-24T11:18:59;11.80;99.90
19809;DHT22;48538;32.784;-96.802;2023-04-24T11:21:40;11.80;99.90
19809;DHT22;48538;32.784;-96.802;2023-04-24T11:24:23;11.90;99.90
19809;DHT22;48538;32.784;-96.802;2023-04-24T11:26:55;11.90;99.90
19809;DHT22;48538;32.784;-96.802;2023-04-24T11:29:23;11.80;99.90
19809;DHT22;48538;32.784;-96.802;2023-04-24T11:32:25;11.90;99.90
19809;DHT22;48538;32.784;-96.802;2023-04-24T11:37:27;11.90;99.90
19809;DHT22;48538;32.784;-96.802;2023-04-24T11:39:55;11.90;99.90
19809;DHT22;48538;32.784;-96.802;2023-04-24T11:42:22;11.90;99.90
19809;DHT22;48538;32.784;-96.802;2023-04-24T11:44:51;11.90;99.90
19809;DHT22;48538;32.784;-96.802;2023-04-24T11:47:18;11.90;99.90
19809;DHT22;48538;32.784;-96.802;2023-04-24T11:49:44;12.00;99.90
19809;DHT22;48538;32.784;-96.802;2023-04-24T11:52:10;11.90;99.90
19809;DHT22;48538;32.784;-96.802;2023-04-24T11:54:37;11.90;99.90
19809;DHT22;48538;32.784;-96.802;2023-04-24T11:57:06;11.80;99.90
19809;DHT22;48538;32.784;-96.802;2023-04-24T11:59:36;11.90;99.90
19809;DHT22;48538;32.784;-96.802;2023-04-24T12:02:03;11.90;99.90
19809;DHT22;48538;32.784;-96.802;2023-04-24T12:04:41;11.90;99.90
19809;DHT22;48538;32.784;-96.802;2023-04-24T12:07:08;11.90;99.90
19809;DHT22;48538;32.784;-96.802;2023-04-24T12:09:48;12.00;99.90
19809;DHT22;48538;32.784;-96.802;2023-04-24T12:12:16;12.00;99.90
19809;DHT22;48538;32.784;-96.802;2023-04-24T12:14:51;12.00;99.90
19809;DHT22;48538;32.784;-96.802;2023-04-24T12:17:24;12.00;99.90
19809;DHT22;48538;32.784;-96.802;2023-04-24T12:19:51;12.00;99.90
19809;DHT22;48538;32.784;-96.802;2023-04-24T12:22:17;12.00;99.90
19809;DHT22;48538;32.784;-96.802;2023-04-24T12:25:00;12.00;99.90
19809;DHT22;48538;32.784;-96.802;2023-04-24T12:27:32;12.10;99.90
19809;DHT22;48538;32.784;-96.802;2023-04-24T12:30:04;12.10;99.90
19809;DHT22;48538;32.784;-96.802;2023-04-24T12:32:30;12.10;99.90
19809;DHT22;48538;32.784;-96.802;2023-04-24T12:34:58;12.10;99.90
19809;DHT22;48538;32.784;-96.802;2023-04-24T12:37:25;12.10;99.90
19809;DHT22;48538;32.784;-96.802;2023-04-24T12:40:07;12.10;99.90
19809;DHT22;48538;32.784;-96.802;2023-04-24T12:42:34;12.00;99.90
19809;DHT22;48538;32.784;-96.802;2023-04-24T12:45:06;12.00;99.90
19809;DHT22;48538;32.784;-96.802;2023-04-24T12:47:34;12.10;99.90
19809;DHT22;48538;32.784;-96.802;2023-04-24T12:50:01;12.10;99.90
19809;DHT22;48538;32.784;-96.802;2023-04-24T12:52:29;12.20;99.90
19809;DHT22;48538;32.784;-96.802;2023-04-24T12:54:57;12.20;99.90
19809;DHT22;48538;32.784;-96.802;2023-04-24T12:57:25;12.30;99.90
19809;DHT22;48538;32.784;-96.802;2023-04-24T12:59:56;12.30;99.90
19809;DHT22;48538;32.784;-96.802;2023-04-24T13:02:23;12.40;99.90
19809;DHT22;48538;32.784;-96.802;2023-04-24T13:04:50;12.40;99.90
19809;DHT22;48538;32.784;-96.802;2023-04-24T13:07:17;12.40;99.90
19809;DHT22;48538;32.784;-96.802;2023-04-24T13:09:44;12.50;99.90
19809;DHT22;48538;32.784;-96.802;2023-04-24T13:12:11;12.50;99.90
19809;DHT22;48538;32.784;-96.802;2023-04-24T13:14:38;12.50;99.90
19809;DHT22;48538;32.784;-96.802;2023-04-24T13:17:04;12.60;99.90
19809;DHT22;48538;32.784;-96.802;2023-04-24T13:19:36;12.70;99.90
19809;DHT22;48538;32.784;-96.802;2023-04-24T13:22:03;12.70;99.90
19809;DHT22;48538;32.784;-96.802;2023-04-24T13:24:30;12.80;99.90
19809;DHT22;48538;32.784;-96.802;2023-04-24T13:26:57;12.80;99.90
19809;DHT22;48538;32.784;-96.802;2023-04-24T13:29:23;12.90;99.90
19809;DHT22;48538;32.784;-96.802;2023-04-24T13:31:50;13.00;99.90
19809;DHT22;48538;32.784;-96.802;2023-04-24T13:34:17;13.00;99.90
19809;DHT22;48538;32.784;-96.802;2023-04-24T13:36:44;13.10;99.90
19809;DHT22;48538;32.784;-96.802;2023-04-24T13:39:10;13.20;99.90
19809;DHT22;48538;32.784;-96.802;2023-04-24T13:41:37;13.10;99.90
19809;DHT22;48538;32.784;-96.802;2023-04-24T13:44:04;13.30;99.90
19809;DHT22;48538;32.784;-96.802;2023-04-24T13:46:30;13.30;99.90
19809;DHT22;48538;32.784;-96.802;2023-04-24T13:48:57;13.40;99.90
19809;DHT22;48538;32.784;-96.802;2023-04-24T13:51:25;13.50;99.90
19809;DHT22;48538;32.784;-96.802;2023-04-24T13:53:55;13.50;99.90
19809;DHT22;48538;32.784;-96.802;2023-04-24T13:56:22;13.60;99.90
19809;DHT22;48538;32.784;-96.802;2023-04-24T13:58:48;13.70;99.90
19809;DHT22;48538;32.784;-96.802;2023-04-24T14:01:15;13.80;99.90
19809;DHT22;48538;32.784;-96.802;2023-04-24T14:03:42;13.90;99.90
19809;DHT22;48538;32.784;-96.802;2023-04-24T14:06:11;13.90;99.90
19809;DHT22;48538;32.784;-96.802;2023-04-24T14:08:38;14.00;99.90
19809;DHT22;48538;32.784;-96.802;2023-04-24T14:11:04;14.00;99.90
19809;DHT22;48538;32.784;-96.802;2023-04-24T14:13:30;14.00;99.90
19809;DHT22;48538;32.784;-96.802;2023-04-24T14:15:58;14.10;99.90
19809;DHT22;48538;32.784;-96.802;2023-04-24T14:18:24;14.10;99.90
19809;DHT22;48538;32.784;-96.802;2023-04-24T14:20:50;14.20;99.90
19809;DHT22;48538;32.784;-96.802;2023-04-24T14:23:17;14.20;99.90
19809;DHT22;48538;32.784;-96.802;2023-04-24T14:25:43;14.10;99.90
19809;DHT22;48538;32.784;-96.802;2023-04-24T14:28:10;14.10;99.90
19809;DHT22;48538;32.784;-96.802;2023-04-24T14:30:36;14.10;99.90
19809;DHT22;48538;32.784;-96.802;2023-04-24T14:33:03;14.10;99.90
19809;DHT22;48538;32.784;-96.802;2023-04-24T14:35:30;14.00;99.90
19809;DHT22;48538;32.784;-96.802;2023-04-24T14:37:59;14.00;99.90
19809;DHT22;48538;32.784;-96.802;2023-04-24T14:40:25;14.10;99.90
19809;DHT22;48538;32.784;-96.802;2023-04-24T14:42:51;14.10;99.90
19809;DHT22;48538;32.784;-96.802;2023-04-24T14:45:18;14.20;99.90
19809;DHT22;48538;32.784;-96.802;2023-04-24T14:47:45;14.30;99.90
19809;DHT22;48538;32.784;-96.802;2023-04-24T14:50:11;14.30;99.90
19809;DHT22;48538;32.784;-96.802;2023-04-24T14:52:38;14.30;99.90
19809;DHT22;48538;32.784;-96.802;2023-04-24T14:55:05;14.30;99.90
19809;DHT22;48538;32.784;-96.802;2023-04-24T14:57:33;14.40;99.90
19809;DHT22;48538;32.784;-96.802;2023-04-24T14:59:59;14.40;99.90
19809;DHT22;48538;32.784;-96.802;2023-04-24T15:02:26;14.50;99.90
19809;DHT22;48538;32.784;-96.802;2023-04-24T15:04:52;14.50;99.90
19809;DHT22;48538;32.784;-96.802;2023-04-24T15:07:18;14.60;99.90
19809;DHT22;48538;32.784;-96.802;2023-04-24T15:09:44;14.80;99.90
19809;DHT22;48538;32.784;-96.802;2023-04-24T15:12:12;14.90;99.90
19809;DHT22;48538;32.784;-96.802;2023-04-24T15:14:39;15.00;99.90